Marina — V7SK2 — position and weather

sailwx.info

Track history (hours):
 
Tides and Currents Weather Stations Pressure Air Temp Water Temp Dewpoint Dewpoint Depression Visibility Wind Speed Wind Dir Waves Ship Positions

Marina

Last reported at 2018-Jun-17 21:37 UTC. Time now 2018-Jun-19 10:50 UTC.
Position N 58°34' E 021°14'.

Length 238 m; draft 7.4 m.

Type: Passenger vessel. MMSI: 538003668.

Date/timePositionNaut miles runAvg speedWind from/ knotsBaromVisibWave heightAir tempDewpointWater temp
2018-Jun-17 21:37N 58°34' E 021°14'319.7
2018-Jun-17 21:29N 58°37' E 021°14'919.9
2018-Jun-17 21:00N 58°47' E 021°14'1020.2
2018-Jun-17 20:31N 58°56' E 021°22'1020.1
2018-Jun-17 20:00N 59°04' E 021°33'1019.9
2018-Jun-17 19:30N 59°12' E 021°46'1220.1
2018-Jun-17 18:55N 59°19' E 022°04'1020.1
2018-Jun-17 18:26N 59°25' E 022°19'920.3
2018-Jun-17 18:00N 59°30' E 022°33'1020.0
2018-Jun-17 17:31N 59°34' E 022°51'1020.2
2018-Jun-17 17:01N 59°36' E 023°10'1020.2
2018-Jun-17 16:31N 59°39' E 023°29'1020.4
2018-Jun-17 16:01N 59°42' E 023°49'1020.3
2018-Jun-17 15:31N 59°44' E 024°08'1020.3
2018-Jun-17 15:01N 59°47' E 024°28'1019.9
2018-Jun-17 14:31N 59°52' E 024°45'917.9
2018-Jun-17 14:00N 59°59' E 024°56'816.4
2018-Jun-17 13:30N 60°07' E 024°54'2 4.0
2018-Jun-17 13:00N 60°09' E 024°55'0 0.0
2018-Jun-17 12:30N 60°09' E 024°55'0 0.0
2018-Jun-17 12:00N 60°09' E 024°55'0 0.0
2018-Jun-17 11:30N 60°09' E 024°55'0 0.0
2018-Jun-17 11:00N 60°09' E 024°55'0 0.0
2018-Jun-17 10:30N 60°09' E 024°55'0 0.0
2018-Jun-17 10:00N 60°09' E 024°55'0 0.0
2018-Jun-17 09:30N 60°09' E 024°55'0 0.0
2018-Jun-17 09:00N 60°09' E 024°55'0 0.0
2018-Jun-17 08:30N 60°09' E 024°55'0 0.0
2018-Jun-17 08:00N 60°09' E 024°55'0 0.0
2018-Jun-17 07:30N 60°09' E 024°55'0 0.0
2018-Jun-17 07:00N 60°09' E 024°55'0 0.0
2018-Jun-17 06:30N 60°09' E 024°55'0 0.0
2018-Jun-17 06:00N 60°09' E 024°55'0 0.0
2018-Jun-17 05:30N 60°09' E 024°55'0 0.0
2018-Jun-17 05:00N 60°09' E 024°55'0 0.0
2018-Jun-17 04:30N 60°09' E 024°55'1 1.3
2018-Jun-17 04:00N 60°09' E 024°54'5 9.3
2018-Jun-17 03:30N 60°04' E 024°54'713.4
2018-Jun-17 03:00N 59°57' E 024°56'612.9
2018-Jun-17 02:30N 59°53' E 025°05'612.5
2018-Jun-17 02:00N 59°52' E 025°17'713.3
2018-Jun-17 01:30N 59°54' E 025°30'713.2
2018-Jun-17 01:00N 59°55' E 025°43'713.4
2018-Jun-17 00:30N 59°56' E 025°56'713.2
2018-Jun-17 00:00N 59°58' E 026°09'713.8
2018-Jun-16 23:31N 59°60' E 026°22'815.7
2018-Jun-16 23:00N 60°01' E 026°38'915.9
2018-Jun-16 22:28N 60°00' E 026°54'715.5
2018-Jun-16 22:00N 60°01' E 027°09'816.0
2018-Jun-16 21:30N 60°06' E 027°22'815.9
2018-Jun-16 21:00N 60°10' E 027°36'815.2
2018-Jun-16 20:30N 60°11' E 027°51'816.1
2018-Jun-16 20:00N 60°09' E 028°06'815.6
2018-Jun-16 19:30N 60°06' E 028°21'815.7
2018-Jun-16 19:01N 60°03' E 028°35'1118.9
2018-Jun-16 18:26N 60°03' E 028°57'512.3
2018-Jun-16 17:59N 60°02' E 029°08'815.6
2018-Jun-16 17:30N 60°02' E 029°23'611.5
2018-Jun-16 17:01N 60°01' E 029°34'611.5
2018-Jun-16 16:30N 59°59' E 029°45'510.3
2018-Jun-16 16:00N 59°56' E 029°54'5 9.9
2018-Jun-16 15:30N 59°56' E 030°04'3 7.1
2018-Jun-16 15:00N 59°57' E 030°11'0 0.0
2018-Jun-16 14:29N 59°57' E 030°11'0 0.0
2018-Jun-16 13:59N 59°57' E 030°11'0 0.0
2018-Jun-16 13:29N 59°57' E 030°11'0 0.0
2018-Jun-16 12:59N 59°57' E 030°11'0 0.0
2018-Jun-16 12:29N 59°57' E 030°11'0 0.0
2018-Jun-16 11:59N 59°57' E 030°11'0 0.0
2018-Jun-16 11:30N 59°57' E 030°11'0 0.0
2018-Jun-16 10:59N 59°57' E 030°11'0 0.0
2018-Jun-16 10:29N 59°57' E 030°11'0 0.0
2018-Jun-16 09:59N 59°57' E 030°11'0 0.0
2018-Jun-16 09:29N 59°57' E 030°11'0 0.0
2018-Jun-16 08:59N 59°57' E 030°11'0 0.0
2018-Jun-16 08:29N 59°57' E 030°11'0 0.0
2018-Jun-16 07:59N 59°57' E 030°11'0 0.0
2018-Jun-16 07:20N 59°57' E 030°11'0 0.0
2018-Jun-16 06:59N 59°57' E 030°11'0 0.0
2018-Jun-16 06:29N 59°57' E 030°11'0 0.0
2018-Jun-16 05:53N 59°57' E 030°11'0 0.0
2018-Jun-16 05:29N 59°57' E 030°11'0 0.0
2018-Jun-16 04:59N 59°57' E 030°11'0 0.0
2018-Jun-16 04:27N 59°57' E 030°11'0 0.0
2018-Jun-16 03:59N 59°57' E 030°11'0 0.0
2018-Jun-16 03:29N 59°57' E 030°11'0 0.0
2018-Jun-16 02:59N 59°57' E 030°11'0 0.0
2018-Jun-16 02:30N 59°57' E 030°11'0 0.0
2018-Jun-16 01:56N 59°57' E 030°11'0 0.0
2018-Jun-16 01:29N 59°57' E 030°11'0 0.0
2018-Jun-16 00:59N 59°57' E 030°11'0 0.0
2018-Jun-16 00:29N 59°57' E 030°11'0 0.0
2018-Jun-15 23:59N 59°57' E 030°11'0 0.0
2018-Jun-15 23:29N 59°57' E 030°11'0 0.0
2018-Jun-15 22:56N 59°57' E 030°11'0 0.0
2018-Jun-15 22:29N 59°57' E 030°11'0 0.0
2018-Jun-15 21:56N 59°57' E 030°11'0 0.0
2018-Jun-15 21:29N 59°57' E 030°11'0 0.0
2018-Jun-15 20:59N 59°57' E 030°11'0 0.0
2018-Jun-15 20:26N 59°57' E 030°11'0 0.0
2018-Jun-15 19:47N 59°57' E 030°11'0 0.0
2018-Jun-15 19:30N 59°57' E 030°11'0 0.0
2018-Jun-15 18:59N 59°57' E 030°11'0 0.0
2018-Jun-15 18:29N 59°57' E 030°11'0 0.0
2018-Jun-15 17:47N 59°57' E 030°11'0 0.0
2018-Jun-15 17:30N 59°57' E 030°11'0 0.0
2018-Jun-15 16:59N 59°57' E 030°11'0 0.0
2018-Jun-15 16:26N 59°57' E 030°11'0 0.0
2018-Jun-15 15:59N 59°57' E 030°11'0 0.0
2018-Jun-15 15:26N 59°57' E 030°11'0 0.0
2018-Jun-15 14:56N 59°57' E 030°11'0 0.0
2018-Jun-15 14:23N 59°57' E 030°11'0 0.0
2018-Jun-15 13:56N 59°57' E 030°11'0 0.0
2018-Jun-15 13:29N 59°57' E 030°11'0 0.0
2018-Jun-15 12:59N 59°57' E 030°11'0 0.0
2018-Jun-15 12:29N 59°57' E 030°11'0 0.0
2018-Jun-15 11:59N 59°57' E 030°11'0 0.0
2018-Jun-15 11:29N 59°57' E 030°11'0 0.0
2018-Jun-15 10:59N 59°57' E 030°11'0 0.0
2018-Jun-15 10:29N 59°57' E 030°11'0 0.0
2018-Jun-15 09:56N 59°57' E 030°11'0 0.0
2018-Jun-15 09:29N 59°57' E 030°11'0 0.0
2018-Jun-15 08:56N 59°57' E 030°11'0 0.0
2018-Jun-15 08:29N 59°57' E 030°11'0 0.0
2018-Jun-15 07:59N 59°57' E 030°11'0 0.0
2018-Jun-15 07:29N 59°57' E 030°11'0 0.0
2018-Jun-15 06:56N 59°57' E 030°11'0 0.0
2018-Jun-15 06:23N 59°57' E 030°11'0 0.0
2018-Jun-15 05:59N 59°57' E 030°11'0 0.0
2018-Jun-15 05:29N 59°57' E 030°11'0 0.0
2018-Jun-15 04:59N 59°57' E 030°11'0 0.0
2018-Jun-15 04:29N 59°57' E 030°11'0 0.0
2018-Jun-15 03:56N 59°57' E 030°11'0 0.0
2018-Jun-15 03:29N 59°57' E 030°11'0 0.0
2018-Jun-15 02:56N 59°57' E 030°11'0 0.0
2018-Jun-15 02:29N 59°57' E 030°11'0 0.0
2018-Jun-15 01:59N 59°57' E 030°11'0 0.0
2018-Jun-15 01:23N 59°57' E 030°11'0 0.0
2018-Jun-15 00:56N 59°57' E 030°11'0 0.0
2018-Jun-15 00:29N 59°57' E 030°11'0 0.0
2018-Jun-14 23:59N 59°57' E 030°11'0 0.0
2018-Jun-14 23:26N 59°57' E 030°11'0 0.0
2018-Jun-14 22:56N 59°57' E 030°11'0 0.0
2018-Jun-14 22:26N 59°57' E 030°11'0 0.0
2018-Jun-14 21:56N 59°57' E 030°11'0 0.0
2018-Jun-14 21:26N 59°57' E 030°11'0 0.0
2018-Jun-14 20:54N 59°57' E 030°11'0 0.0
2018-Jun-14 20:17N 59°57' E 030°11'0 0.0
2018-Jun-14 19:56N 59°57' E 030°11'0 0.0
2018-Jun-14 19:12N 59°57' E 030°11'0 0.0
2018-Jun-14 18:56N 59°57' E 030°11'0 0.0
2018-Jun-14 18:29N 59°57' E 030°11'0 0.0
2018-Jun-14 17:56N 59°57' E 030°11'0 0.0
2018-Jun-14 17:29N 59°57' E 030°11'0 0.0
2018-Jun-14 16:56N 59°57' E 030°11'0 0.0
2018-Jun-14 16:30N 59°57' E 030°11'0 0.0
2018-Jun-14 15:56N 59°57' E 030°11'0 0.0
2018-Jun-14 15:14N 59°57' E 030°11'0 0.0
2018-Jun-14 14:59N 59°57' E 030°11'0 0.0
2018-Jun-14 14:23N 59°57' E 030°11'0 0.0
2018-Jun-14 13:57N 59°57' E 030°11'0 0.0
2018-Jun-14 13:28N 59°57' E 030°11'0 0.0
2018-Jun-14 12:58N 59°57' E 030°11'0 0.0
2018-Jun-14 12:22N 59°57' E 030°11'0 0.0
2018-Jun-14 10:28N 59°57' E 030°11'0 0.0
2018-Jun-14 09:52N 59°57' E 030°11'0 0.0
2018-Jun-14 09:28N 59°57' E 030°11'0 0.0
2018-Jun-14 06:40N 59°57' E 030°11'0 0.0
2018-Jun-14 06:16N 59°57' E 030°11'0 0.0
2018-Jun-14 05:52N 59°57' E 030°11'0 0.0
2018-Jun-14 05:23N 59°57' E 030°11'0 0.0
2018-Jun-14 04:58N 59°57' E 030°11'0 0.0
2018-Jun-14 04:28N 59°57' E 030°11'0 0.4
2018-Jun-14 04:00N 59°57' E 030°11'4 7.6
2018-Jun-14 03:30N 59°56' E 030°04'510.1
2018-Jun-14 03:00N 59°57' E 029°54'510.4
2018-Jun-14 02:31N 59°59' E 029°45'611.8
2018-Jun-14 02:00N 60°01' E 029°33'612.5
2018-Jun-14 01:30N 60°02' E 029°21'714.3
2018-Jun-14 01:00N 60°02' E 029°07'713.4
2018-Jun-14 00:30N 60°02' E 028°53'713.6
2018-Jun-13 23:59N 60°02' E 028°39'713.5
2018-Jun-13 23:30N 60°03' E 028°26'713.5
2018-Jun-13 23:00N 60°07' E 028°16'713.5
2018-Jun-13 22:30N 60°09' E 028°02'713.7
2018-Jun-13 22:00N 60°11' E 027°49'713.6
2018-Jun-13 21:30N 60°08' E 027°37'714.0
2018-Jun-13 21:00N 60°04' E 027°25'814.2
2018-Jun-13 20:27N 60°00' E 027°12'613.9
2018-Jun-13 20:00N 59°58' E 027°00'714.2
2018-Jun-13 19:30N 59°59' E 026°46'714.3
2018-Jun-13 19:00N 59°58' E 026°32'714.3
2018-Jun-13 18:30N 59°56' E 026°18'713.5
2018-Jun-13 18:00N 59°54' E 026°05'713.6
2018-Jun-13 17:30N 59°53' E 025°52'713.9
2018-Jun-13 17:00N 59°52' E 025°38'714.1
2018-Jun-13 16:31N 59°50' E 025°25'714.0
2018-Jun-13 16:01N 59°48' E 025°11'714.0
2018-Jun-13 15:30N 59°46' E 024°58'714.1
2018-Jun-13 15:01N 59°42' E 024°48'713.1
2018-Jun-13 14:30N 59°36' E 024°42'816.0
2018-Jun-13 14:00N 59°28' E 024°46'1 2.0
2018-Jun-13 13:29N 59°27' E 024°46'0 0.0
2018-Jun-13 12:59N 59°27' E 024°46'0 0.0
2018-Jun-13 12:29N 59°27' E 024°46'0 0.0
2018-Jun-13 11:59N 59°27' E 024°46'0 0.0
2018-Jun-13 11:30N 59°27' E 024°46'0 0.0
2018-Jun-13 11:00N 59°27' E 024°46'0 0.0
2018-Jun-13 10:29N 59°27' E 024°46'0 0.0
2018-Jun-13 09:59N 59°27' E 024°46'0 0.0
2018-Jun-13 09:29N 59°27' E 024°46'0 0.0
2018-Jun-13 09:00N 59°27' E 024°46'0 0.0
2018-Jun-13 08:30N 59°27' E 024°46'0 0.0
2018-Jun-13 07:59N 59°27' E 024°46'0 0.0
2018-Jun-13 07:28N 59°27' E 024°46'0 0.0
2018-Jun-13 06:59N 59°27' E 024°46'0 0.0
2018-Jun-13 06:30N 59°27' E 024°46'0 0.0
2018-Jun-13 05:59N 59°27' E 024°46'0 0.0
2018-Jun-13 05:28N 59°27' E 024°46'0 0.0
2018-Jun-13 05:00N 59°27' E 024°46'0 0.0
2018-Jun-13 04:30N 59°27' E 024°46'4 7.4
2018-Jun-13 04:01N 59°30' E 024°44'815.7
2018-Jun-13 03:30N 59°30' E 024°28'816.2
2018-Jun-13 03:01N 59°29' E 024°12'815.5
2018-Jun-13 02:30N 59°29' E 023°57'815.2
2018-Jun-13 02:00N 59°29' E 023°42'915.0
2018-Jun-13 01:23N 59°28' E 023°24'1815.4
2018-Jun-13 00:11N 59°27' E 022°47'616.0
2018-Jun-12 23:49N 59°25' E 022°37'817.7
2018-Jun-12 23:21N 59°22' E 022°22'817.8
2018-Jun-12 22:55N 59°21' E 022°07'718.0
2018-Jun-12 22:30N 59°21' E 021°52'917.9
2018-Jun-12 22:00N 59°20' E 021°35'1217.8
2018-Jun-12 21:21N 59°19' E 021°12'618.0
2018-Jun-12 21:01N 59°18' E 021°00'2118.0
2018-Jun-12 19:51N 59°16' E 020°19'918.2
2018-Jun-12 19:22N 59°16' E 020°02'617.6
2018-Jun-12 19:00N 59°15' E 019°50'1018.0
2018-Jun-12 18:26N 59°14' E 019°30'1217.4
2018-Jun-12 17:46N 59°14' E 019°07'414.3
2018-Jun-12 17:28N 59°16' E 019°00'4 9.6
2018-Jun-12 17:00N 59°18' E 018°52'713.9
2018-Jun-12 16:30N 59°23' E 018°42'511.0
2018-Jun-12 16:00N 59°24' E 018°32'4 8.8
2018-Jun-12 15:30N 59°25' E 018°24'4 8.1
2018-Jun-12 15:00N 59°22' E 018°25'510.3
2018-Jun-12 14:30N 59°21' E 018°15'4 7.3
2018-Jun-12 14:00N 59°21' E 018°08'0 0.0
2018-Jun-12 13:30N 59°21' E 018°08'0 0.0
2018-Jun-12 13:00N 59°21' E 018°08'0 0.0
2018-Jun-12 12:30N 59°21' E 018°08'0 0.0
2018-Jun-12 12:00N 59°21' E 018°08'0 0.0
2018-Jun-12 11:30N 59°21' E 018°08'0 0.0
2018-Jun-12 11:00N 59°21' E 018°08'0 0.0
2018-Jun-12 10:30N 59°21' E 018°08'0 0.0
2018-Jun-12 10:00N 59°21' E 018°08'0 0.0
2018-Jun-12 09:30N 59°21' E 018°08'0 0.0
2018-Jun-12 09:00N 59°21' E 018°08'0 0.0
2018-Jun-12 08:30N 59°21' E 018°08'0 0.0
2018-Jun-12 08:00N 59°21' E 018°08'0 0.0
2018-Jun-12 07:30N 59°21' E 018°08'0 0.0
2018-Jun-12 07:00N 59°21' E 018°08'0 0.0
2018-Jun-12 06:30N 59°21' E 018°08'0 0.0
2018-Jun-12 06:00N 59°21' E 018°08'0 0.0
2018-Jun-12 05:30N 59°21' E 018°08'0 0.0
2018-Jun-12 05:00N 59°21' E 018°08'0 0.0
2018-Jun-12 04:30N 59°21' E 018°08'0 0.0
2018-Jun-12 04:00N 59°21' E 018°08'2 3.1
2018-Jun-12 03:30N 59°20' E 018°11'510.8
2018-Jun-12 03:00N 59°23' E 018°20'3 6.9
2018-Jun-12 02:30N 59°23' E 018°27'3 7.0
2018-Jun-12 02:00N 59°27' E 018°26'612.1
2018-Jun-12 01:30N 59°23' E 018°35'611.9
2018-Jun-12 01:00N 59°21' E 018°47'612.7
2018-Jun-12 00:30N 59°16' E 018°54'5 9.4
2018-Jun-12 00:00N 59°14' E 019°03'612.3
2018-Jun-11 23:30N 59°14' E 019°15'1417.3
2018-Jun-11 22:43N 59°16' E 019°41'417.7
2018-Jun-11 22:28N 59°16' E 019°49'3417.4
2018-Jun-11 20:32N 59°22' E 020°55'117.2
2018-Jun-11 20:30N 59°22' E 020°56'917.2
2018-Jun-11 20:00N 59°23' E 021°12'917.1
2018-Jun-11 19:30N 59°24' E 021°29'917.3
2018-Jun-11 19:00N 59°25' E 021°46'917.7
2018-Jun-11 18:30N 59°27' E 022°03'917.4
2018-Jun-11 18:00N 59°28' E 022°20'1019.1
2018-Jun-11 17:30N 59°31' E 022°38'918.7
2018-Jun-11 17:00N 59°32' E 022°56'1019.2
2018-Jun-11 16:30N 59°31' E 023°15'919.3
2018-Jun-11 16:00N 59°31' E 023°34'1019.2
2018-Jun-11 15:30N 59°31' E 023°53'1019.3
2018-Jun-11 15:00N 59°30' E 024°12'1019.5
2018-Jun-11 14:30N 59°30' E 024°31'714.1
2018-Jun-11 14:00N 59°31' E 024°45'4 7.4
2018-Jun-11 13:28N 59°27' E 024°46'0 0.0
2018-Jun-11 12:55N 59°27' E 024°46'0 0.0
2018-Jun-11 12:28N 59°27' E 024°46'0 0.0
2018-Jun-11 11:59N 59°27' E 024°46'0 0.0
2018-Jun-11 11:28N 59°27' E 024°46'0 0.0
2018-Jun-11 10:58N 59°27' E 024°46'0 0.0
2018-Jun-11 10:28N 59°27' E 024°46'0 0.0
2018-Jun-11 09:59N 59°27' E 024°46'0 0.0
2018-Jun-11 09:29N 59°27' E 024°46'0 0.0
2018-Jun-11 08:55N 59°27' E 024°46'0 0.0
2018-Jun-11 08:28N 59°27' E 024°46'0 0.0
2018-Jun-11 07:58N 59°27' E 024°46'0 0.0
2018-Jun-11 07:30N 59°27' E 024°46'0 0.0
2018-Jun-11 06:59N 59°27' E 024°46'0 0.0
2018-Jun-11 06:28N 59°27' E 024°46'0 0.0
2018-Jun-11 05:58N 59°27' E 024°46'0 0.0
2018-Jun-11 05:28N 59°27' E 024°46'0 0.0
2018-Jun-11 04:59N 59°27' E 024°46'0 0.2
2018-Jun-11 04:31N 59°27' E 024°46'4 7.3
2018-Jun-11 04:00N 59°31' E 024°44'815.8
2018-Jun-11 03:30N 59°39' E 024°42'714.7
2018-Jun-11 03:00N 59°45' E 024°49'612.4
2018-Jun-11 02:30N 59°50' E 024°55'715.2
2018-Jun-11 02:00N 59°52' E 025°10'815.1
2018-Jun-11 01:30N 59°53' E 025°25'815.0
2018-Jun-11 01:00N 59°54' E 025°40'815.2
2018-Jun-11 00:30N 59°56' E 025°54'714.6
2018-Jun-11 00:00N 59°58' E 026°08'715.0
2018-Jun-10 23:30N 59°60' E 026°23'714.5
2018-Jun-10 23:00N 60°01' E 026°37'816.9
2018-Jun-10 22:30N 59°60' E 026°54'816.5
2018-Jun-10 22:00N 60°01' E 027°10'816.8
2018-Jun-10 21:30N 60°06' E 027°24'1017.8
2018-Jun-10 20:57N 60°11' E 027°42'613.3
2018-Jun-10 20:30N 60°11' E 027°53'816.1
2018-Jun-10 20:00N 60°09' E 028°09'815.7
2018-Jun-10 19:30N 60°05' E 028°23'917.0
2018-Jun-10 19:00N 60°03' E 028°39'917.9
2018-Jun-10 18:31N 60°03' E 028°57'815.6
2018-Jun-10 18:00N 60°02' E 029°13'915.5
2018-Jun-10 17:27N 60°01' E 029°30'512.3
2018-Jun-10 17:00N 59°60' E 029°40'5 9.3
2018-Jun-10 16:29N 59°58' E 029°49'510.7
2018-Jun-10 16:00N 59°56' E 029°58'510.0
2018-Jun-10 15:30N 59°57' E 030°08'2 0.2
2018-Jun-10 06:51N 59°57' E 030°11'0 0.0
2018-Jun-10 06:21N 59°57' E 030°11'0 0.0
2018-Jun-10 05:39N 59°57' E 030°11'0 0.0
2018-Jun-10 05:30N 59°57' E 030°11'0 0.0
2018-Jun-10 04:42N 59°57' E 030°11'0 0.0
2018-Jun-10 04:21N 59°57' E 030°11'0 0.0
2018-Jun-10 03:54N 59°57' E 030°11'0 0.0
2018-Jun-10 03:27N 59°57' E 030°11'0 0.0
2018-Jun-10 02:51N 59°57' E 030°11'0 0.0
2018-Jun-10 02:27N 59°57' E 030°11'0 0.0
2018-Jun-10 01:53N 59°57' E 030°11'0 0.0
2018-Jun-10 01:21N 59°57' E 030°11'0 0.0
2018-Jun-10 00:54N 59°57' E 030°11'0 0.0
2018-Jun-10 00:27N 59°57' E 030°11'0 0.0
2018-Jun-09 23:58N 59°57' E 030°11'0 0.0
2018-Jun-09 23:27N 59°57' E 030°11'0 0.0
2018-Jun-09 22:57N 59°57' E 030°11'0 0.0
2018-Jun-09 22:18N 59°57' E 030°11'0 0.0
2018-Jun-09 21:51N 59°57' E 030°11'0 0.0
2018-Jun-09 21:27N 59°57' E 030°11'0 0.0
2018-Jun-09 13:30N 59°57' E 030°11'0 0.0
2018-Jun-09 12:07N 59°57' E 030°11'0 0.0
2018-Jun-09 11:00N 59°57' E 030°11'0 0.0
2018-Jun-09 10:27N 59°57' E 030°11'0 0.0
2018-Jun-09 09:06N 59°57' E 030°11'0 0.0
2018-Jun-09 05:55N 59°57' E 030°11'0 0.4
2018-Jun-09 05:27N 59°57' E 030°11'3 5.9
2018-Jun-09 05:00N 59°57' E 030°06'5 9.6
2018-Jun-09 04:28N 59°56' E 029°56'511.6
2018-Jun-09 04:00N 59°59' E 029°46'810.3
2018-Jun-09 03:14N 60°01' E 029°31'210.5
2018-Jun-09 03:00N 60°01' E 029°26'714.0
2018-Jun-09 02:30N 60°02' E 029°12'714.8
2018-Jun-09 02:00N 60°02' E 028°58'714.7
2018-Jun-09 01:30N 60°02' E 028°43'714.6
2018-Jun-09 01:00N 60°03' E 028°28'714.5
2018-Jun-09 00:30N 60°07' E 028°16'714.7
2018-Jun-09 00:00N 60°09' E 028°02'714.7
2018-Jun-08 23:30N 60°11' E 027°48'714.4
2018-Jun-08 23:00N 60°08' E 027°35'714.6
2018-Jun-08 22:30N 60°04' E 027°23'814.7
2018-Jun-08 21:59N 59°60' E 027°09'713.7
2018-Jun-08 21:29N 59°58' E 026°56'714.5
2018-Jun-08 21:00N 59°59' E 026°42'815.4
2018-Jun-08 20:31N 59°58' E 026°28'815.3
2018-Jun-08 20:00N 59°56' E 026°13'1214.5
2018-Jun-08 19:13N 59°53' E 025°51'515.0
2018-Jun-08 18:53N 59°52' E 025°41'615.5
2018-Jun-08 18:30N 59°51' E 025°29'816.9
2018-Jun-08 18:01N 59°55' E 025°14'816.8
2018-Jun-08 17:30N 59°60' E 024°60'714.5
2018-Jun-08 17:00N 60°06' E 024°54'3 5.4
2018-Jun-08 16:28N 60°09' E 024°55'0 0.0
2018-Jun-08 15:58N 60°09' E 024°55'0 0.0
2018-Jun-08 15:28N 60°09' E 024°55'0 0.0
2018-Jun-08 14:58N 60°09' E 024°55'0 0.0
2018-Jun-08 14:28N 60°09' E 024°55'0 0.0
2018-Jun-08 13:58N 60°09' E 024°55'0 0.0
2018-Jun-08 13:28N 60°09' E 024°55'0 0.0
2018-Jun-08 12:58N 60°09' E 024°55'0 0.0
2018-Jun-08 12:28N 60°09' E 024°55'0 0.0
2018-Jun-08 11:58N 60°09' E 024°55'0 0.0
2018-Jun-08 11:28N 60°09' E 024°55'0 0.0
2018-Jun-08 10:58N 60°09' E 024°55'0 0.0
2018-Jun-08 10:28N 60°09' E 024°55'0 0.0
2018-Jun-08 09:58N 60°09' E 024°55'0 0.0
2018-Jun-08 09:28N 60°09' E 024°55'0 0.0
2018-Jun-08 08:58N 60°09' E 024°55'0 0.0
2018-Jun-08 08:28N 60°09' E 024°55'0 0.0
2018-Jun-08 07:58N 60°09' E 024°55'0 0.0
2018-Jun-08 07:31N 60°09' E 024°55'1 2.6
2018-Jun-08 07:00N 60°08' E 024°54'714.9
2018-Jun-08 06:31N 60°01' E 024°56'815.1
2018-Jun-08 06:01N 59°53' E 024°53'1019.1
2018-Jun-08 05:31N 59°46' E 024°40'1019.5
2018-Jun-08 05:01N 59°44' E 024°21'1019.7
2018-Jun-08 04:30N 59°40' E 024°03'919.3
2018-Jun-08 04:00N 59°36' E 023°46'1019.9
2018-Jun-08 03:31N 59°33' E 023°27'1019.8
2018-Jun-08 03:01N 59°32' E 023°08'917.9
2018-Jun-08 02:30N 59°29' E 022°51'2019.5
2018-Jun-08 01:30N 59°19' E 022°17'919.2
2018-Jun-08 01:00N 59°14' E 022°03'1019.1
2018-Jun-08 00:30N 59°07' E 021°48'1119.1
2018-Jun-07 23:56N 58°58' E 021°36'  
Track history (hours):
 
Tides and Currents Weather Stations Pressure Air Temp Water Temp Dewpoint Dewpoint Depression Visibility Wind Speed Wind Dir Waves Ship Positions

Marina

Last reported at 2018-Jun-17 21:37 UTC. Time now 2018-Jun-19 10:50 UTC.
Position N 58°34' E 021°14'.

Length 238 m; draft 7.4 m.

Type: Passenger vessel. MMSI: 538003668.

Date/timePositionNaut miles runAvg speedWind from/ knotsBaromVisibWave heightAir tempDewpointWater temp
2018-Jun-17 21:37N 58°34' E 021°14'319.7
2018-Jun-17 21:29N 58°37' E 021°14'919.9
2018-Jun-17 21:00N 58°47' E 021°14'1020.2
2018-Jun-17 20:31N 58°56' E 021°22'1020.1
2018-Jun-17 20:00N 59°04' E 021°33'1019.9
2018-Jun-17 19:30N 59°12' E 021°46'1220.1
2018-Jun-17 18:55N 59°19' E 022°04'1020.1
2018-Jun-17 18:26N 59°25' E 022°19'920.3
2018-Jun-17 18:00N 59°30' E 022°33'1020.0
2018-Jun-17 17:31N 59°34' E 022°51'1020.2
2018-Jun-17 17:01N 59°36' E 023°10'1020.2
2018-Jun-17 16:31N 59°39' E 023°29'1020.4
2018-Jun-17 16:01N 59°42' E 023°49'1020.3
2018-Jun-17 15:31N 59°44' E 024°08'1020.3
2018-Jun-17 15:01N 59°47' E 024°28'1019.9
2018-Jun-17 14:31N 59°52' E 024°45'917.9
2018-Jun-17 14:00N 59°59' E 024°56'816.4
2018-Jun-17 13:30N 60°07' E 024°54'2 4.0
2018-Jun-17 13:00N 60°09' E 024°55'0 0.0
2018-Jun-17 12:30N 60°09' E 024°55'0 0.0
2018-Jun-17 12:00N 60°09' E 024°55'0 0.0
2018-Jun-17 11:30N 60°09' E 024°55'0 0.0
2018-Jun-17 11:00N 60°09' E 024°55'0 0.0
2018-Jun-17 10:30N 60°09' E 024°55'0 0.0
2018-Jun-17 10:00N 60°09' E 024°55'0 0.0
2018-Jun-17 09:30N 60°09' E 024°55'0 0.0
2018-Jun-17 09:00N 60°09' E 024°55'0 0.0
2018-Jun-17 08:30N 60°09' E 024°55'0 0.0
2018-Jun-17 08:00N 60°09' E 024°55'0 0.0
2018-Jun-17 07:30N 60°09' E 024°55'0 0.0
2018-Jun-17 07:00N 60°09' E 024°55'0 0.0
2018-Jun-17 06:30N 60°09' E 024°55'0 0.0
2018-Jun-17 06:00N 60°09' E 024°55'0 0.0
2018-Jun-17 05:30N 60°09' E 024°55'0 0.0
2018-Jun-17 05:00N 60°09' E 024°55'0 0.0
2018-Jun-17 04:30N 60°09' E 024°55'1 1.3
2018-Jun-17 04:00N 60°09' E 024°54'5 9.3
2018-Jun-17 03:30N 60°04' E 024°54'713.4
2018-Jun-17 03:00N 59°57' E 024°56'612.9
2018-Jun-17 02:30N 59°53' E 025°05'612.5
2018-Jun-17 02:00N 59°52' E 025°17'713.3
2018-Jun-17 01:30N 59°54' E 025°30'713.2
2018-Jun-17 01:00N 59°55' E 025°43'713.4
2018-Jun-17 00:30N 59°56' E 025°56'713.2
2018-Jun-17 00:00N 59°58' E 026°09'713.8
2018-Jun-16 23:31N 59°60' E 026°22'815.7
2018-Jun-16 23:00N 60°01' E 026°38'915.9
2018-Jun-16 22:28N 60°00' E 026°54'715.5
2018-Jun-16 22:00N 60°01' E 027°09'816.0
2018-Jun-16 21:30N 60°06' E 027°22'815.9
2018-Jun-16 21:00N 60°10' E 027°36'815.2
2018-Jun-16 20:30N 60°11' E 027°51'816.1
2018-Jun-16 20:00N 60°09' E 028°06'815.6
2018-Jun-16 19:30N 60°06' E 028°21'815.7
2018-Jun-16 19:01N 60°03' E 028°35'1118.9
2018-Jun-16 18:26N 60°03' E 028°57'512.3
2018-Jun-16 17:59N 60°02' E 029°08'815.6
2018-Jun-16 17:30N 60°02' E 029°23'611.5
2018-Jun-16 17:01N 60°01' E 029°34'611.5
2018-Jun-16 16:30N 59°59' E 029°45'510.3
2018-Jun-16 16:00N 59°56' E 029°54'5 9.9
2018-Jun-16 15:30N 59°56' E 030°04'3 7.1
2018-Jun-16 15:00N 59°57' E 030°11'0 0.0
2018-Jun-16 14:29N 59°57' E 030°11'0 0.0
2018-Jun-16 13:59N 59°57' E 030°11'0 0.0
2018-Jun-16 13:29N 59°57' E 030°11'0 0.0
2018-Jun-16 12:59N 59°57' E 030°11'0 0.0
2018-Jun-16 12:29N 59°57' E 030°11'0 0.0
2018-Jun-16 11:59N 59°57' E 030°11'0 0.0
2018-Jun-16 11:30N 59°57' E 030°11'0 0.0
2018-Jun-16 10:59N 59°57' E 030°11'0 0.0
2018-Jun-16 10:29N 59°57' E 030°11'0 0.0
2018-Jun-16 09:59N 59°57' E 030°11'0 0.0
2018-Jun-16 09:29N 59°57' E 030°11'0 0.0
2018-Jun-16 08:59N 59°57' E 030°11'0 0.0
2018-Jun-16 08:29N 59°57' E 030°11'0 0.0
2018-Jun-16 07:59N 59°57' E 030°11'0 0.0
2018-Jun-16 07:20N 59°57' E 030°11'0 0.0
2018-Jun-16 06:59N 59°57' E 030°11'0 0.0
2018-Jun-16 06:29N 59°57' E 030°11'0 0.0
2018-Jun-16 05:53N 59°57' E 030°11'0 0.0
2018-Jun-16 05:29N 59°57' E 030°11'0 0.0
2018-Jun-16 04:59N 59°57' E 030°11'0 0.0
2018-Jun-16 04:27N 59°57' E 030°11'0 0.0
2018-Jun-16 03:59N 59°57' E 030°11'0 0.0
2018-Jun-16 03:29N 59°57' E 030°11'0 0.0
2018-Jun-16 02:59N 59°57' E 030°11'0 0.0
2018-Jun-16 02:30N 59°57' E 030°11'0 0.0
2018-Jun-16 01:56N 59°57' E 030°11'0 0.0
2018-Jun-16 01:29N 59°57' E 030°11'0 0.0
2018-Jun-16 00:59N 59°57' E 030°11'0 0.0
2018-Jun-16 00:29N 59°57' E 030°11'0 0.0
2018-Jun-15 23:59N 59°57' E 030°11'0 0.0
2018-Jun-15 23:29N 59°57' E 030°11'0 0.0
2018-Jun-15 22:56N 59°57' E 030°11'0 0.0
2018-Jun-15 22:29N 59°57' E 030°11'0 0.0
2018-Jun-15 21:56N 59°57' E 030°11'0 0.0
2018-Jun-15 21:29N 59°57' E 030°11'0 0.0
2018-Jun-15 20:59N 59°57' E 030°11'0 0.0
2018-Jun-15 20:26N 59°57' E 030°11'0 0.0
2018-Jun-15 19:47N 59°57' E 030°11'0 0.0
2018-Jun-15 19:30N 59°57' E 030°11'0 0.0
2018-Jun-15 18:59N 59°57' E 030°11'0 0.0
2018-Jun-15 18:29N 59°57' E 030°11'0 0.0
2018-Jun-15 17:47N 59°57' E 030°11'0 0.0
2018-Jun-15 17:30N 59°57' E 030°11'0 0.0
2018-Jun-15 16:59N 59°57' E 030°11'0 0.0
2018-Jun-15 16:26N 59°57' E 030°11'0 0.0
2018-Jun-15 15:59N 59°57' E 030°11'0 0.0
2018-Jun-15 15:26N 59°57' E 030°11'0 0.0
2018-Jun-15 14:56N 59°57' E 030°11'0 0.0
2018-Jun-15 14:23N 59°57' E 030°11'0 0.0
2018-Jun-15 13:56N 59°57' E 030°11'0 0.0
2018-Jun-15 13:29N 59°57' E 030°11'0 0.0
2018-Jun-15 12:59N 59°57' E 030°11'0 0.0
2018-Jun-15 12:29N 59°57' E 030°11'0 0.0
2018-Jun-15 11:59N 59°57' E 030°11'0 0.0
2018-Jun-15 11:29N 59°57' E 030°11'0 0.0
2018-Jun-15 10:59N 59°57' E 030°11'0 0.0
2018-Jun-15 10:29N 59°57' E 030°11'0 0.0
2018-Jun-15 09:56N 59°57' E 030°11'0 0.0
2018-Jun-15 09:29N 59°57' E 030°11'0 0.0
2018-Jun-15 08:56N 59°57' E 030°11'0 0.0
2018-Jun-15 08:29N 59°57' E 030°11'0 0.0
2018-Jun-15 07:59N 59°57' E 030°11'0 0.0
2018-Jun-15 07:29N 59°57' E 030°11'0 0.0
2018-Jun-15 06:56N 59°57' E 030°11'0 0.0
2018-Jun-15 06:23N 59°57' E 030°11'0 0.0
2018-Jun-15 05:59N 59°57' E 030°11'0 0.0
2018-Jun-15 05:29N 59°57' E 030°11'0 0.0
2018-Jun-15 04:59N 59°57' E 030°11'0 0.0
2018-Jun-15 04:29N 59°57' E 030°11'0 0.0
2018-Jun-15 03:56N 59°57' E 030°11'0 0.0
2018-Jun-15 03:29N 59°57' E 030°11'0 0.0
2018-Jun-15 02:56N 59°57' E 030°11'0 0.0
2018-Jun-15 02:29N 59°57' E 030°11'0 0.0
2018-Jun-15 01:59N 59°57' E 030°11'0 0.0
2018-Jun-15 01:23N 59°57' E 030°11'0 0.0
2018-Jun-15 00:56N 59°57' E 030°11'0 0.0
2018-Jun-15 00:29N 59°57' E 030°11'0 0.0
2018-Jun-14 23:59N 59°57' E 030°11'0 0.0
2018-Jun-14 23:26N 59°57' E 030°11'0 0.0
2018-Jun-14 22:56N 59°57' E 030°11'0 0.0
2018-Jun-14 22:26N 59°57' E 030°11'0 0.0
2018-Jun-14 21:56N 59°57' E 030°11'0 0.0
2018-Jun-14 21:26N 59°57' E 030°11'0 0.0
2018-Jun-14 20:54N 59°57' E 030°11'0 0.0
2018-Jun-14 20:17N 59°57' E 030°11'0 0.0
2018-Jun-14 19:56N 59°57' E 030°11'0 0.0
2018-Jun-14 19:12N 59°57' E 030°11'0 0.0
2018-Jun-14 18:56N 59°57' E 030°11'0 0.0
2018-Jun-14 18:29N 59°57' E 030°11'0 0.0
2018-Jun-14 17:56N 59°57' E 030°11'0 0.0
2018-Jun-14 17:29N 59°57' E 030°11'0 0.0
2018-Jun-14 16:56N 59°57' E 030°11'0 0.0
2018-Jun-14 16:30N 59°57' E 030°11'0 0.0
2018-Jun-14 15:56N 59°57' E 030°11'0 0.0
2018-Jun-14 15:14N 59°57' E 030°11'0 0.0
2018-Jun-14 14:59N 59°57' E 030°11'0 0.0
2018-Jun-14 14:23N 59°57' E 030°11'0 0.0
2018-Jun-14 13:57N 59°57' E 030°11'0 0.0
2018-Jun-14 13:28N 59°57' E 030°11'0 0.0
2018-Jun-14 12:58N 59°57' E 030°11'0 0.0
2018-Jun-14 12:22N 59°57' E 030°11'0 0.0
2018-Jun-14 10:28N 59°57' E 030°11'0 0.0
2018-Jun-14 09:52N 59°57' E 030°11'0 0.0
2018-Jun-14 09:28N 59°57' E 030°11'0 0.0
2018-Jun-14 06:40N 59°57' E 030°11'0 0.0
2018-Jun-14 06:16N 59°57' E 030°11'0 0.0
2018-Jun-14 05:52N 59°57' E 030°11'0 0.0
2018-Jun-14 05:23N 59°57' E 030°11'0 0.0
2018-Jun-14 04:58N 59°57' E 030°11'0 0.0
2018-Jun-14 04:28N 59°57' E 030°11'0 0.4
2018-Jun-14 04:00N 59°57' E 030°11'4 7.6
2018-Jun-14 03:30N 59°56' E 030°04'510.1
2018-Jun-14 03:00N 59°57' E 029°54'510.4
2018-Jun-14 02:31N 59°59' E 029°45'611.8
2018-Jun-14 02:00N 60°01' E 029°33'612.5
2018-Jun-14 01:30N 60°02' E 029°21'714.3
2018-Jun-14 01:00N 60°02' E 029°07'713.4
2018-Jun-14 00:30N 60°02' E 028°53'713.6
2018-Jun-13 23:59N 60°02' E 028°39'713.5
2018-Jun-13 23:30N 60°03' E 028°26'713.5
2018-Jun-13 23:00N 60°07' E 028°16'713.5
2018-Jun-13 22:30N 60°09' E 028°02'713.7
2018-Jun-13 22:00N 60°11' E 027°49'713.6
2018-Jun-13 21:30N 60°08' E 027°37'714.0
2018-Jun-13 21:00N 60°04' E 027°25'814.2
2018-Jun-13 20:27N 60°00' E 027°12'613.9
2018-Jun-13 20:00N 59°58' E 027°00'714.2
2018-Jun-13 19:30N 59°59' E 026°46'714.3
2018-Jun-13 19:00N 59°58' E 026°32'714.3
2018-Jun-13 18:30N 59°56' E 026°18'713.5
2018-Jun-13 18:00N 59°54' E 026°05'713.6
2018-Jun-13 17:30N 59°53' E 025°52'713.9
2018-Jun-13 17:00N 59°52' E 025°38'714.1
2018-Jun-13 16:31N 59°50' E 025°25'714.0
2018-Jun-13 16:01N 59°48' E 025°11'714.0
2018-Jun-13 15:30N 59°46' E 024°58'714.1
2018-Jun-13 15:01N 59°42' E 024°48'713.1
2018-Jun-13 14:30N 59°36' E 024°42'816.0
2018-Jun-13 14:00N 59°28' E 024°46'1 2.0
2018-Jun-13 13:29N 59°27' E 024°46'0 0.0
2018-Jun-13 12:59N 59°27' E 024°46'0 0.0
2018-Jun-13 12:29N 59°27' E 024°46'0 0.0
2018-Jun-13 11:59N 59°27' E 024°46'0 0.0
2018-Jun-13 11:30N 59°27' E 024°46'0 0.0
2018-Jun-13 11:00N 59°27' E 024°46'0 0.0
2018-Jun-13 10:29N 59°27' E 024°46'0 0.0
2018-Jun-13 09:59N 59°27' E 024°46'0 0.0
2018-Jun-13 09:29N 59°27' E 024°46'0 0.0
2018-Jun-13 09:00N 59°27' E 024°46'0 0.0
2018-Jun-13 08:30N 59°27' E 024°46'0 0.0
2018-Jun-13 07:59N 59°27' E 024°46'0 0.0
2018-Jun-13 07:28N 59°27' E 024°46'0 0.0
2018-Jun-13 06:59N 59°27' E 024°46'0 0.0
2018-Jun-13 06:30N 59°27' E 024°46'0 0.0
2018-Jun-13 05:59N 59°27' E 024°46'0 0.0
2018-Jun-13 05:28N 59°27' E 024°46'0 0.0
2018-Jun-13 05:00N 59°27' E 024°46'0 0.0
2018-Jun-13 04:30N 59°27' E 024°46'4 7.4
2018-Jun-13 04:01N 59°30' E 024°44'815.7
2018-Jun-13 03:30N 59°30' E 024°28'816.2
2018-Jun-13 03:01N 59°29' E 024°12'815.5
2018-Jun-13 02:30N 59°29' E 023°57'815.2
2018-Jun-13 02:00N 59°29' E 023°42'915.0
2018-Jun-13 01:23N 59°28' E 023°24'1815.4
2018-Jun-13 00:11N 59°27' E 022°47'616.0
2018-Jun-12 23:49N 59°25' E 022°37'817.7
2018-Jun-12 23:21N 59°22' E 022°22'817.8
2018-Jun-12 22:55N 59°21' E 022°07'718.0
2018-Jun-12 22:30N 59°21' E 021°52'917.9
2018-Jun-12 22:00N 59°20' E 021°35'1217.8
2018-Jun-12 21:21N 59°19' E 021°12'618.0
2018-Jun-12 21:01N 59°18' E 021°00'2118.0
2018-Jun-12 19:51N 59°16' E 020°19'918.2
2018-Jun-12 19:22N 59°16' E 020°02'617.6
2018-Jun-12 19:00N 59°15' E 019°50'1018.0
2018-Jun-12 18:26N 59°14' E 019°30'1217.4
2018-Jun-12 17:46N 59°14' E 019°07'414.3
2018-Jun-12 17:28N 59°16' E 019°00'4 9.6
2018-Jun-12 17:00N 59°18' E 018°52'713.9
2018-Jun-12 16:30N 59°23' E 018°42'511.0
2018-Jun-12 16:00N 59°24' E 018°32'4 8.8
2018-Jun-12 15:30N 59°25' E 018°24'4 8.1
2018-Jun-12 15:00N 59°22' E 018°25'510.3
2018-Jun-12 14:30N 59°21' E 018°15'4 7.3
2018-Jun-12 14:00N 59°21' E 018°08'0 0.0
2018-Jun-12 13:30N 59°21' E 018°08'0 0.0
2018-Jun-12 13:00N 59°21' E 018°08'0 0.0
2018-Jun-12 12:30N 59°21' E 018°08'0 0.0
2018-Jun-12 12:00N 59°21' E 018°08'0 0.0
2018-Jun-12 11:30N 59°21' E 018°08'0 0.0
2018-Jun-12 11:00N 59°21' E 018°08'0 0.0
2018-Jun-12 10:30N 59°21' E 018°08'0 0.0
2018-Jun-12 10:00N 59°21' E 018°08'0 0.0
2018-Jun-12 09:30N 59°21' E 018°08'0 0.0
2018-Jun-12 09:00N 59°21' E 018°08'0 0.0
2018-Jun-12 08:30N 59°21' E 018°08'0 0.0
2018-Jun-12 08:00N 59°21' E 018°08'0 0.0
2018-Jun-12 07:30N 59°21' E 018°08'0 0.0
2018-Jun-12 07:00N 59°21' E 018°08'0 0.0
2018-Jun-12 06:30N 59°21' E 018°08'0 0.0
2018-Jun-12 06:00N 59°21' E 018°08'0 0.0
2018-Jun-12 05:30N 59°21' E 018°08'0 0.0
2018-Jun-12 05:00N 59°21' E 018°08'0 0.0
2018-Jun-12 04:30N 59°21' E 018°08'0 0.0
2018-Jun-12 04:00N 59°21' E 018°08'2 3.1
2018-Jun-12 03:30N 59°20' E 018°11'510.8
2018-Jun-12 03:00N 59°23' E 018°20'3 6.9
2018-Jun-12 02:30N 59°23' E 018°27'3 7.0
2018-Jun-12 02:00N 59°27' E 018°26'612.1
2018-Jun-12 01:30N 59°23' E 018°35'611.9
2018-Jun-12 01:00N 59°21' E 018°47'612.7
2018-Jun-12 00:30N 59°16' E 018°54'5 9.4
2018-Jun-12 00:00N 59°14' E 019°03'612.3
2018-Jun-11 23:30N 59°14' E 019°15'1417.3
2018-Jun-11 22:43N 59°16' E 019°41'417.7
2018-Jun-11 22:28N 59°16' E 019°49'3417.4
2018-Jun-11 20:32N 59°22' E 020°55'117.2
2018-Jun-11 20:30N 59°22' E 020°56'917.2
2018-Jun-11 20:00N 59°23' E 021°12'917.1
2018-Jun-11 19:30N 59°24' E 021°29'917.3
2018-Jun-11 19:00N 59°25' E 021°46'917.7
2018-Jun-11 18:30N 59°27' E 022°03'917.4
2018-Jun-11 18:00N 59°28' E 022°20'1019.1
2018-Jun-11 17:30N 59°31' E 022°38'918.7
2018-Jun-11 17:00N 59°32' E 022°56'1019.2
2018-Jun-11 16:30N 59°31' E 023°15'919.3
2018-Jun-11 16:00N 59°31' E 023°34'1019.2
2018-Jun-11 15:30N 59°31' E 023°53'1019.3
2018-Jun-11 15:00N 59°30' E 024°12'1019.5
2018-Jun-11 14:30N 59°30' E 024°31'714.1
2018-Jun-11 14:00N 59°31' E 024°45'4 7.4
2018-Jun-11 13:28N 59°27' E 024°46'0 0.0
2018-Jun-11 12:55N 59°27' E 024°46'0 0.0
2018-Jun-11 12:28N 59°27' E 024°46'0 0.0
2018-Jun-11 11:59N 59°27' E 024°46'0 0.0
2018-Jun-11 11:28N 59°27' E 024°46'0 0.0
2018-Jun-11 10:58N 59°27' E 024°46'0 0.0
2018-Jun-11 10:28N 59°27' E 024°46'0 0.0
2018-Jun-11 09:59N 59°27' E 024°46'0 0.0
2018-Jun-11 09:29N 59°27' E 024°46'0 0.0
2018-Jun-11 08:55N 59°27' E 024°46'0 0.0
2018-Jun-11 08:28N 59°27' E 024°46'0 0.0
2018-Jun-11 07:58N 59°27' E 024°46'0 0.0
2018-Jun-11 07:30N 59°27' E 024°46'0 0.0
2018-Jun-11 06:59N 59°27' E 024°46'0 0.0
2018-Jun-11 06:28N 59°27' E 024°46'0 0.0
2018-Jun-11 05:58N 59°27' E 024°46'0 0.0
2018-Jun-11 05:28N 59°27' E 024°46'0 0.0
2018-Jun-11 04:59N 59°27' E 024°46'0 0.2
2018-Jun-11 04:31N 59°27' E 024°46'4 7.3
2018-Jun-11 04:00N 59°31' E 024°44'815.8
2018-Jun-11 03:30N 59°39' E 024°42'714.7
2018-Jun-11 03:00N 59°45' E 024°49'612.4
2018-Jun-11 02:30N 59°50' E 024°55'715.2
2018-Jun-11 02:00N 59°52' E 025°10'815.1
2018-Jun-11 01:30N 59°53' E 025°25'815.0
2018-Jun-11 01:00N 59°54' E 025°40'815.2
2018-Jun-11 00:30N 59°56' E 025°54'714.6
2018-Jun-11 00:00N 59°58' E 026°08'715.0
2018-Jun-10 23:30N 59°60' E 026°23'714.5
2018-Jun-10 23:00N 60°01' E 026°37'816.9
2018-Jun-10 22:30N 59°60' E 026°54'816.5
2018-Jun-10 22:00N 60°01' E 027°10'816.8
2018-Jun-10 21:30N 60°06' E 027°24'1017.8
2018-Jun-10 20:57N 60°11' E 027°42'613.3
2018-Jun-10 20:30N 60°11' E 027°53'816.1
2018-Jun-10 20:00N 60°09' E 028°09'815.7
2018-Jun-10 19:30N 60°05' E 028°23'917.0
2018-Jun-10 19:00N 60°03' E 028°39'917.9
2018-Jun-10 18:31N 60°03' E 028°57'815.6
2018-Jun-10 18:00N 60°02' E 029°13'915.5
2018-Jun-10 17:27N 60°01' E 029°30'512.3
2018-Jun-10 17:00N 59°60' E 029°40'5 9.3
2018-Jun-10 16:29N 59°58' E 029°49'510.7
2018-Jun-10 16:00N 59°56' E 029°58'510.0
2018-Jun-10 15:30N 59°57' E 030°08'2 0.2
2018-Jun-10 06:51N 59°57' E 030°11'0 0.0
2018-Jun-10 06:21N 59°57' E 030°11'0 0.0
2018-Jun-10 05:39N 59°57' E 030°11'0 0.0
2018-Jun-10 05:30N 59°57' E 030°11'0 0.0
2018-Jun-10 04:42N 59°57' E 030°11'0 0.0
2018-Jun-10 04:21N 59°57' E 030°11'0 0.0
2018-Jun-10 03:54N 59°57' E 030°11'0 0.0
2018-Jun-10 03:27N 59°57' E 030°11'0 0.0
2018-Jun-10 02:51N 59°57' E 030°11'0 0.0
2018-Jun-10 02:27N 59°57' E 030°11'0 0.0
2018-Jun-10 01:53N 59°57' E 030°11'0 0.0
2018-Jun-10 01:21N 59°57' E 030°11'0 0.0
2018-Jun-10 00:54N 59°57' E 030°11'0 0.0
2018-Jun-10 00:27N 59°57' E 030°11'0 0.0
2018-Jun-09 23:58N 59°57' E 030°11'0 0.0
2018-Jun-09 23:27N 59°57' E 030°11'0 0.0
2018-Jun-09 22:57N 59°57' E 030°11'0 0.0
2018-Jun-09 22:18N 59°57' E 030°11'0 0.0
2018-Jun-09 21:51N 59°57' E 030°11'0 0.0
2018-Jun-09 21:27N 59°57' E 030°11'0 0.0
2018-Jun-09 13:30N 59°57' E 030°11'0 0.0
2018-Jun-09 12:07N 59°57' E 030°11'0 0.0
2018-Jun-09 11:00N 59°57' E 030°11'0 0.0
2018-Jun-09 10:27N 59°57' E 030°11'0 0.0
2018-Jun-09 09:06N 59°57' E 030°11'0 0.0
2018-Jun-09 05:55N 59°57' E 030°11'0 0.4
2018-Jun-09 05:27N 59°57' E 030°11'3 5.9
2018-Jun-09 05:00N 59°57' E 030°06'5 9.6
2018-Jun-09 04:28N 59°56' E 029°56'511.6
2018-Jun-09 04:00N 59°59' E 029°46'810.3
2018-Jun-09 03:14N 60°01' E 029°31'210.5
2018-Jun-09 03:00N 60°01' E 029°26'714.0
2018-Jun-09 02:30N 60°02' E 029°12'714.8
2018-Jun-09 02:00N 60°02' E 028°58'714.7
2018-Jun-09 01:30N 60°02' E 028°43'714.6
2018-Jun-09 01:00N 60°03' E 028°28'714.5
2018-Jun-09 00:30N 60°07' E 028°16'714.7
2018-Jun-09 00:00N 60°09' E 028°02'714.7
2018-Jun-08 23:30N 60°11' E 027°48'714.4
2018-Jun-08 23:00N 60°08' E 027°35'714.6
2018-Jun-08 22:30N 60°04' E 027°23'814.7
2018-Jun-08 21:59N 59°60' E 027°09'713.7
2018-Jun-08 21:29N 59°58' E 026°56'714.5
2018-Jun-08 21:00N 59°59' E 026°42'815.4
2018-Jun-08 20:31N 59°58' E 026°28'815.3
2018-Jun-08 20:00N 59°56' E 026°13'1214.5
2018-Jun-08 19:13N 59°53' E 025°51'515.0
2018-Jun-08 18:53N 59°52' E 025°41'615.5
2018-Jun-08 18:30N 59°51' E 025°29'816.9
2018-Jun-08 18:01N 59°55' E 025°14'816.8
2018-Jun-08 17:30N 59°60' E 024°60'714.5
2018-Jun-08 17:00N 60°06' E 024°54'3 5.4
2018-Jun-08 16:28N 60°09' E 024°55'0 0.0
2018-Jun-08 15:58N 60°09' E 024°55'0 0.0
2018-Jun-08 15:28N 60°09' E 024°55'0 0.0
2018-Jun-08 14:58N 60°09' E 024°55'0 0.0
2018-Jun-08 14:28N 60°09' E 024°55'0 0.0
2018-Jun-08 13:58N 60°09' E 024°55'0 0.0
2018-Jun-08 13:28N 60°09' E 024°55'0 0.0
2018-Jun-08 12:58N 60°09' E 024°55'0 0.0
2018-Jun-08 12:28N 60°09' E 024°55'0 0.0
2018-Jun-08 11:58N 60°09' E 024°55'0 0.0
2018-Jun-08 11:28N 60°09' E 024°55'0 0.0
2018-Jun-08 10:58N 60°09' E 024°55'0 0.0
2018-Jun-08 10:28N 60°09' E 024°55'0 0.0
2018-Jun-08 09:58N 60°09' E 024°55'0 0.0
2018-Jun-08 09:28N 60°09' E 024°55'0 0.0
2018-Jun-08 08:58N 60°09' E 024°55'0 0.0
2018-Jun-08 08:28N 60°09' E 024°55'0 0.0
2018-Jun-08 07:58N 60°09' E 024°55'0 0.0
2018-Jun-08 07:31N 60°09' E 024°55'1 2.6
2018-Jun-08 07:00N 60°08' E 024°54'714.9
2018-Jun-08 06:31N 60°01' E 024°56'815.1
2018-Jun-08 06:01N 59°53' E 024°53'1019.1
2018-Jun-08 05:31N 59°46' E 024°40'1019.5
2018-Jun-08 05:01N 59°44' E 024°21'1019.7
2018-Jun-08 04:30N 59°40' E 024°03'919.3
2018-Jun-08 04:00N 59°36' E 023°46'1019.9
2018-Jun-08 03:31N 59°33' E 023°27'1019.8
2018-Jun-08 03:01N 59°32' E 023°08'917.9
2018-Jun-08 02:30N 59°29' E 022°51'2019.5
2018-Jun-08 01:30N 59°19' E 022°17'919.2
2018-Jun-08 01:00N 59°14' E 022°03'1019.1
2018-Jun-08 00:30N 59°07' E 021°48'1119.1
2018-Jun-07 23:56N 58°58' E 021°36'  

Dump ship's entire track history